Weather at Northeast Community Hospital Heliport

Public forecast

Using degrees Fahrenheit for public forecast. Weather courtesy of forecast.io.

Closest aviation weather report (METAR) to Northeast Community Hospital Heliport

Closest report is Dallas Fort Worth International Airport, 6.5 nm (12.1 km) ENE. Retrieved 2020/09/22 01:53 UTC (10 minutes ago):

KDFW 220153Z 07010KT 10SM -RA OVC012 19/18 A3007 RMK AO2 SLP176 P0001 T01890183

Closest aviation forecast (TAF) to Northeast Community Hospital Heliport

Closest forecast is Dallas Fort Worth International Airport, 6.5 nm (12.1 km) ENE. Retrieved 2020-09-22 00:33 UTC (2 hours ago):

TAF KDFW 212331Z 2200/2306 07010KT 5SM BR VCSH OVC011 TEMPO 2200/2203 3SM -RA OVC007 FM220300 06011KT 5SM BR VCSH OVC007 FM220800 05007KT 2SM BR VCSH OVC005 FM222100 05007KT 4SM BR OVC007